sensor_id;sensor_type;location;lat;lon;timestamp;P1;durP1;ratioP1;P2;durP2;ratioP2
21038;SDS011;10678;51.002;4.786;2023-03-31T00:00:35;10.00;;;2.35;;
21038;SDS011;10678;51.002;4.786;2023-03-31T00:03:00;11.88;;;2.30;;
21038;SDS011;10678;51.002;4.786;2023-03-31T00:05:27;10.73;;;2.78;;
21038;SDS011;10678;51.002;4.786;2023-03-31T00:07:56;9.25;;;2.17;;
21038;SDS011;10678;51.002;4.786;2023-03-31T00:10:25;12.35;;;2.28;;
21038;SDS011;10678;51.002;4.786;2023-03-31T00:12:52;14.82;;;2.50;;
21038;SDS011;10678;51.002;4.786;2023-03-31T00:15:18;17.65;;;2.85;;
21038;SDS011;10678;51.002;4.786;2023-03-31T00:17:44;19.00;;;2.80;;
21038;SDS011;10678;51.002;4.786;2023-03-31T00:20:11;10.88;;;2.33;;
21038;SDS011;10678;51.002;4.786;2023-03-31T00:22:38;12.50;;;2.53;;
21038;SDS011;10678;51.002;4.786;2023-03-31T00:25:11;14.10;;;2.53;;
21038;SDS011;10678;51.002;4.786;2023-03-31T00:27:40;14.88;;;3.25;;
21038;SDS011;10678;51.002;4.786;2023-03-31T00:30:10;21.23;;;3.13;;
21038;SDS011;10678;51.002;4.786;2023-03-31T00:32:37;15.43;;;2.80;;
21038;SDS011;10678;51.002;4.786;2023-03-31T00:35:02;17.92;;;2.90;;
21038;SDS011;10678;51.002;4.786;2023-03-31T00:37:29;15.20;;;2.45;;
21038;SDS011;10678;51.002;4.786;2023-03-31T00:39:54;17.65;;;2.78;;
21038;SDS011;10678;51.002;4.786;2023-03-31T00:42:21;15.23;;;2.40;;
21038;SDS011;10678;51.002;4.786;2023-03-31T00:50:21;13.43;;;2.95;;
21038;SDS011;10678;51.002;4.786;2023-03-31T00:52:54;15.10;;;2.97;;
21038;SDS011;10678;51.002;4.786;2023-03-31T00:55:30;10.30;;;2.78;;
21038;SDS011;10678;51.002;4.786;2023-03-31T00:58:00;18.77;;;2.72;;
21038;SDS011;10678;51.002;4.786;2023-03-31T01:00:28;22.63;;;2.67;;
21038;SDS011;10678;51.002;4.786;2023-03-31T01:02:56;16.33;;;2.72;;
21038;SDS011;10678;51.002;4.786;2023-03-31T01:05:26;24.27;;;4.68;;
21038;SDS011;10678;51.002;4.786;2023-03-31T01:07:56;13.93;;;2.38;;
21038;SDS011;10678;51.002;4.786;2023-03-31T01:10:24;21.35;;;3.88;;
21038;SDS011;10678;51.002;4.786;2023-03-31T01:12:51;18.45;;;3.38;;
21038;SDS011;10678;51.002;4.786;2023-03-31T01:15:19;20.90;;;3.75;;
21038;SDS011;10678;51.002;4.786;2023-03-31T01:17:46;14.05;;;2.47;;
21038;SDS011;10678;51.002;4.786;2023-03-31T01:20:20;15.88;;;2.65;;
21038;SDS011;10678;51.002;4.786;2023-03-31T01:32:08;19.73;;;2.42;;
21038;SDS011;10678;51.002;4.786;2023-03-31T01:48:42;18.92;;;3.10;;
21038;SDS011;10678;51.002;4.786;2023-03-31T01:51:31;10.02;;;2.00;;
21038;SDS011;10678;51.002;4.786;2023-03-31T01:54:25;12.95;;;2.90;;
21038;SDS011;10678;51.002;4.786;2023-03-31T01:57:20;16.35;;;2.75;;
21038;SDS011;10678;51.002;4.786;2023-03-31T02:00:06;12.32;;;3.15;;
21038;SDS011;10678;51.002;4.786;2023-03-31T02:02:39;14.27;;;2.25;;
21038;SDS011;10678;51.002;4.786;2023-03-31T02:05:11;12.93;;;2.08;;
21038;SDS011;10678;51.002;4.786;2023-03-31T02:07:41;14.35;;;2.45;;
21038;SDS011;10678;51.002;4.786;2023-03-31T02:10:12;12.82;;;2.50;;
21038;SDS011;10678;51.002;4.786;2023-03-31T02:12:40;9.65;;;1.73;;
21038;SDS011;10678;51.002;4.786;2023-03-31T02:15:08;8.52;;;1.98;;
21038;SDS011;10678;51.002;4.786;2023-03-31T02:17:38;17.77;;;2.90;;
21038;SDS011;10678;51.002;4.786;2023-03-31T02:20:06;14.75;;;2.25;;
21038;SDS011;10678;51.002;4.786;2023-03-31T02:22:36;15.70;;;2.50;;
21038;SDS011;10678;51.002;4.786;2023-03-31T02:25:05;9.55;;;2.20;;
21038;SDS011;10678;51.002;4.786;2023-03-31T02:27:43;9.70;;;1.73;;
21038;SDS011;10678;51.002;4.786;2023-03-31T02:30:15;13.18;;;2.65;;
21038;SDS011;10678;51.002;4.786;2023-03-31T02:32:41;11.70;;;2.10;;
21038;SDS011;10678;51.002;4.786;2023-03-31T02:35:15;11.20;;;1.70;;
21038;SDS011;10678;51.002;4.786;2023-03-31T02:37:43;12.48;;;2.05;;
21038;SDS011;10678;51.002;4.786;2023-03-31T02:40:17;11.18;;;1.55;;
21038;SDS011;10678;51.002;4.786;2023-03-31T02:42:44;13.00;;;1.88;;
21038;SDS011;10678;51.002;4.786;2023-03-31T02:48:12;8.25;;;1.55;;
21038;SDS011;10678;51.002;4.786;2023-03-31T02:53:40;6.28;;;1.42;;
21038;SDS011;10678;51.002;4.786;2023-03-31T02:58:57;10.05;;;1.33;;
21038;SDS011;10678;51.002;4.786;2023-03-31T03:04:40;7.45;;;1.40;;
21038;SDS011;10678;51.002;4.786;2023-03-31T03:15:34;9.27;;;1.98;;
21038;SDS011;10678;51.002;4.786;2023-03-31T03:18:07;9.65;;;1.70;;
21038;SDS011;10678;51.002;4.786;2023-03-31T03:20:33;9.15;;;1.58;;
21038;SDS011;10678;51.002;4.786;2023-03-31T03:22:59;12.73;;;1.67;;
21038;SDS011;10678;51.002;4.786;2023-03-31T03:25:25;7.07;;;1.33;;
21038;SDS011;10678;51.002;4.786;2023-03-31T03:27:51;7.32;;;1.38;;
21038;SDS011;10678;51.002;4.786;2023-03-31T03:30:19;6.18;;;1.40;;
21038;SDS011;10678;51.002;4.786;2023-03-31T03:32:45;6.40;;;1.30;;
21038;SDS011;10678;51.002;4.786;2023-03-31T03:35:11;7.18;;;1.38;;
21038;SDS011;10678;51.002;4.786;2023-03-31T03:37:36;9.93;;;2.08;;
21038;SDS011;10678;51.002;4.786;2023-03-31T03:40:02;8.70;;;1.77;;
21038;SDS011;10678;51.002;4.786;2023-03-31T03:42:32;12.00;;;2.80;;
21038;SDS011;10678;51.002;4.786;2023-03-31T03:44:58;6.40;;;1.60;;
21038;SDS011;10678;51.002;4.786;2023-03-31T03:47:24;9.25;;;1.48;;
21038;SDS011;10678;51.002;4.786;2023-03-31T03:49:49;10.30;;;1.50;;
21038;SDS011;10678;51.002;4.786;2023-03-31T03:52:15;9.95;;;1.40;;
21038;SDS011;10678;51.002;4.786;2023-03-31T03:54:41;5.85;;;1.55;;
21038;SDS011;10678;51.002;4.786;2023-03-31T03:57:06;10.05;;;1.58;;
21038;SDS011;10678;51.002;4.786;2023-03-31T03:59:32;8.57;;;1.88;;
21038;SDS011;10678;51.002;4.786;2023-03-31T04:01:58;11.55;;;1.50;;
21038;SDS011;10678;51.002;4.786;2023-03-31T04:04:23;7.15;;;1.42;;
21038;SDS011;10678;51.002;4.786;2023-03-31T04:06:49;10.35;;;1.90;;
21038;SDS011;10678;51.002;4.786;2023-03-31T04:09:15;14.65;;;2.58;;
21038;SDS011;10678;51.002;4.786;2023-03-31T04:11:40;11.27;;;2.17;;
21038;SDS011;10678;51.002;4.786;2023-03-31T04:14:06;16.52;;;1.90;;
21038;SDS011;10678;51.002;4.786;2023-03-31T04:16:32;12.10;;;2.17;;
21038;SDS011;10678;51.002;4.786;2023-03-31T04:18:58;9.13;;;1.75;;
21038;SDS011;10678;51.002;4.786;2023-03-31T04:21:27;12.75;;;2.63;;
21038;SDS011;10678;51.002;4.786;2023-03-31T04:23:54;11.27;;;1.60;;
21038;SDS011;10678;51.002;4.786;2023-03-31T04:26:25;8.23;;;1.52;;
21038;SDS011;10678;51.002;4.786;2023-03-31T04:29:03;10.57;;;1.60;;
21038;SDS011;10678;51.002;4.786;2023-03-31T04:31:32;12.43;;;2.33;;
21038;SDS011;10678;51.002;4.786;2023-03-31T04:33:58;10.38;;;1.38;;
21038;SDS011;10678;51.002;4.786;2023-03-31T04:36:30;8.85;;;1.45;;
21038;SDS011;10678;51.002;4.786;2023-03-31T04:38:57;7.10;;;1.67;;
21038;SDS011;10678;51.002;4.786;2023-03-31T04:41:23;5.65;;;1.15;;
21038;SDS011;10678;51.002;4.786;2023-03-31T04:43:51;14.95;;;2.00;;
21038;SDS011;10678;51.002;4.786;2023-03-31T04:46:17;8.75;;;1.98;;
21038;SDS011;10678;51.002;4.786;2023-03-31T04:48:43;12.23;;;2.03;;
21038;SDS011;10678;51.002;4.786;2023-03-31T04:51:09;11.13;;;2.00;;
21038;SDS011;10678;51.002;4.786;2023-03-31T04:53:35;10.73;;;1.67;;
21038;SDS011;10678;51.002;4.786;2023-03-31T04:56:00;7.95;;;1.88;;
21038;SDS011;10678;51.002;4.786;2023-03-31T04:58:26;14.20;;;1.40;;
21038;SDS011;10678;51.002;4.786;2023-03-31T05:00:52;10.43;;;1.33;;
21038;SDS011;10678;51.002;4.786;2023-03-31T05:03:18;10.80;;;1.90;;
21038;SDS011;10678;51.002;4.786;2023-03-31T05:05:43;12.43;;;1.40;;
21038;SDS011;10678;51.002;4.786;2023-03-31T05:08:09;6.82;;;1.20;;
21038;SDS011;10678;51.002;4.786;2023-03-31T05:10:35;8.75;;;1.50;;
21038;SDS011;10678;51.002;4.786;2023-03-31T05:13:00;8.85;;;1.55;;
21038;SDS011;10678;51.002;4.786;2023-03-31T05:15:26;7.03;;;1.63;;
21038;SDS011;10678;51.002;4.786;2023-03-31T05:17:52;12.27;;;1.50;;
21038;SDS011;10678;51.002;4.786;2023-03-31T05:20:18;9.43;;;1.55;;
21038;SDS011;10678;51.002;4.786;2023-03-31T05:22:44;8.75;;;1.70;;
21038;SDS011;10678;51.002;4.786;2023-03-31T05:25:10;9.77;;;1.80;;
21038;SDS011;10678;51.002;4.786;2023-03-31T05:27:43;10.98;;;1.73;;
21038;SDS011;10678;51.002;4.786;2023-03-31T05:30:13;12.60;;;1.98;;
21038;SDS011;10678;51.002;4.786;2023-03-31T05:32:39;6.88;;;1.65;;
21038;SDS011;10678;51.002;4.786;2023-03-31T05:35:04;9.77;;;1.80;;
21038;SDS011;10678;51.002;4.786;2023-03-31T05:37:30;10.57;;;1.85;;
21038;SDS011;10678;51.002;4.786;2023-03-31T05:39:56;12.40;;;1.90;;
21038;SDS011;10678;51.002;4.786;2023-03-31T05:42:22;7.28;;;1.77;;
21038;SDS011;10678;51.002;4.786;2023-03-31T05:44:50;12.80;;;2.00;;
21038;SDS011;10678;51.002;4.786;2023-03-31T05:47:16;9.30;;;1.50;;
21038;SDS011;10678;51.002;4.786;2023-03-31T05:49:42;11.98;;;2.10;;
21038;SDS011;10678;51.002;4.786;2023-03-31T05:52:08;13.48;;;2.22;;
21038;SDS011;10678;51.002;4.786;2023-03-31T05:54:34;12.85;;;2.25;;
21038;SDS011;10678;51.002;4.786;2023-03-31T05:57:00;16.35;;;2.97;;
21038;SDS011;10678;51.002;4.786;2023-03-31T05:59:26;11.65;;;3.97;;
21038;SDS011;10678;51.002;4.786;2023-03-31T06:01:52;10.95;;;2.08;;
21038;SDS011;10678;51.002;4.786;2023-03-31T06:04:17;8.50;;;1.50;;
21038;SDS011;10678;51.002;4.786;2023-03-31T06:06:43;14.63;;;2.47;;
21038;SDS011;10678;51.002;4.786;2023-03-31T06:09:10;13.50;;;2.17;;
21038;SDS011;10678;51.002;4.786;2023-03-31T06:11:36;17.10;;;2.33;;
21038;SDS011;10678;51.002;4.786;2023-03-31T06:14:02;17.88;;;2.97;;
21038;SDS011;10678;51.002;4.786;2023-03-31T06:16:28;14.57;;;2.83;;
21038;SDS011;10678;51.002;4.786;2023-03-31T06:18:54;14.50;;;2.63;;
21038;SDS011;10678;51.002;4.786;2023-03-31T06:21:19;12.63;;;2.08;;
21038;SDS011;10678;51.002;4.786;2023-03-31T06:23:45;12.57;;;2.38;;
21038;SDS011;10678;51.002;4.786;2023-03-31T06:26:15;18.08;;;2.58;;
21038;SDS011;10678;51.002;4.786;2023-03-31T06:28:42;11.38;;;1.88;;
21038;SDS011;10678;51.002;4.786;2023-03-31T06:31:09;14.93;;;2.40;;
21038;SDS011;10678;51.002;4.786;2023-03-31T06:33:38;12.55;;;2.33;;
21038;SDS011;10678;51.002;4.786;2023-03-31T06:36:05;18.52;;;2.95;;
21038;SDS011;10678;51.002;4.786;2023-03-31T06:38:34;15.10;;;2.63;;
21038;SDS011;10678;51.002;4.786;2023-03-31T06:41:02;20.05;;;2.80;;
21038;SDS011;10678;51.002;4.786;2023-03-31T06:43:28;13.07;;;2.63;;
21038;SDS011;10678;51.002;4.786;2023-03-31T06:45:54;14.90;;;2.58;;
21038;SDS011;10678;51.002;4.786;2023-03-31T06:48:21;15.52;;;3.33;;
21038;SDS011;10678;51.002;4.786;2023-03-31T06:50:47;16.70;;;3.10;;
21038;SDS011;10678;51.002;4.786;2023-03-31T06:53:13;13.02;;;2.70;;
21038;SDS011;10678;51.002;4.786;2023-03-31T06:55:39;17.80;;;3.65;;
21038;SDS011;10678;51.002;4.786;2023-03-31T06:58:05;13.68;;;3.08;;
21038;SDS011;10678;51.002;4.786;2023-03-31T07:00:31;14.73;;;2.28;;
21038;SDS011;10678;51.002;4.786;2023-03-31T07:02:57;13.13;;;2.92;;
21038;SDS011;10678;51.002;4.786;2023-03-31T07:05:23;20.10;;;3.30;;
21038;SDS011;10678;51.002;4.786;2023-03-31T07:07:54;12.35;;;3.30;;
21038;SDS011;10678;51.002;4.786;2023-03-31T07:10:21;15.07;;;3.00;;
21038;SDS011;10678;51.002;4.786;2023-03-31T07:12:47;13.10;;;2.55;;
21038;SDS011;10678;51.002;4.786;2023-03-31T07:15:13;14.07;;;3.53;;
21038;SDS011;10678;51.002;4.786;2023-03-31T07:17:38;13.70;;;2.90;;
21038;SDS011;10678;51.002;4.786;2023-03-31T07:20:11;12.65;;;2.90;;
21038;SDS011;10678;51.002;4.786;2023-03-31T07:22:41;13.75;;;2.72;;
21038;SDS011;10678;51.002;4.786;2023-03-31T07:25:07;16.98;;;2.78;;
21038;SDS011;10678;51.002;4.786;2023-03-31T07:27:34;19.20;;;3.10;;
21038;SDS011;10678;51.002;4.786;2023-03-31T07:30:01;15.40;;;2.13;;
21038;SDS011;10678;51.002;4.786;2023-03-31T07:32:28;15.38;;;2.92;;
21038;SDS011;10678;51.002;4.786;2023-03-31T07:34:53;18.17;;;3.47;;
21038;SDS011;10678;51.002;4.786;2023-03-31T07:37:19;13.05;;;3.17;;
21038;SDS011;10678;51.002;4.786;2023-03-31T07:39:44;21.85;;;3.17;;
21038;SDS011;10678;51.002;4.786;2023-03-31T07:42:10;17.02;;;2.33;;
21038;SDS011;10678;51.002;4.786;2023-03-31T07:44:36;19.35;;;3.22;;
21038;SDS011;10678;51.002;4.786;2023-03-31T07:47:02;21.08;;;2.80;;
21038;SDS011;10678;51.002;4.786;2023-03-31T07:49:30;11.00;;;2.50;;
21038;SDS011;10678;51.002;4.786;2023-03-31T07:51:57;16.35;;;2.70;;
21038;SDS011;10678;51.002;4.786;2023-03-31T07:54:23;14.57;;;2.97;;
21038;SDS011;10678;51.002;4.786;2023-03-31T07:56:48;15.10;;;2.55;;
21038;SDS011;10678;51.002;4.786;2023-03-31T07:59:14;19.85;;;2.80;;
21038;SDS011;10678;51.002;4.786;2023-03-31T08:01:40;15.48;;;3.20;;
21038;SDS011;10678;51.002;4.786;2023-03-31T08:04:06;10.07;;;2.17;;
21038;SDS011;10678;51.002;4.786;2023-03-31T08:06:31;17.67;;;2.70;;
21038;SDS011;10678;51.002;4.786;2023-03-31T08:08:57;16.08;;;2.85;;
21038;SDS011;10678;51.002;4.786;2023-03-31T08:11:23;20.67;;;3.33;;
21038;SDS011;10678;51.002;4.786;2023-03-31T08:13:50;16.77;;;3.08;;
21038;SDS011;10678;51.002;4.786;2023-03-31T08:16:16;14.57;;;2.65;;
21038;SDS011;10678;51.002;4.786;2023-03-31T08:18:41;17.73;;;3.33;;
21038;SDS011;10678;51.002;4.786;2023-03-31T08:21:07;13.50;;;2.60;;
21038;SDS011;10678;51.002;4.786;2023-03-31T08:23:36;12.48;;;2.38;;
21038;SDS011;10678;51.002;4.786;2023-03-31T08:26:12;16.73;;;3.33;;
21038;SDS011;10678;51.002;4.786;2023-03-31T08:28:39;13.32;;;3.17;;
21038;SDS011;10678;51.002;4.786;2023-03-31T08:31:08;16.60;;;3.25;;
21038;SDS011;10678;51.002;4.786;2023-03-31T08:33:34;19.27;;;3.17;;
21038;SDS011;10678;51.002;4.786;2023-03-31T08:36:02;19.23;;;3.25;;
21038;SDS011;10678;51.002;4.786;2023-03-31T08:38:30;13.80;;;2.65;;
21038;SDS011;10678;51.002;4.786;2023-03-31T08:41:00;20.58;;;3.60;;
21038;SDS011;10678;51.002;4.786;2023-03-31T08:43:28;11.55;;;2.17;;
21038;SDS011;10678;51.002;4.786;2023-03-31T08:45:57;13.10;;;2.83;;
21038;SDS011;10678;51.002;4.786;2023-03-31T08:48:35;16.15;;;4.00;;
21038;SDS011;10678;51.002;4.786;2023-03-31T08:54:13;11.35;;;2.42;;
21038;SDS011;10678;51.002;4.786;2023-03-31T08:56:53;17.73;;;2.60;;
21038;SDS011;10678;51.002;4.786;2023-03-31T08:59:26;12.95;;;2.70;;
21038;SDS011;10678;51.002;4.786;2023-03-31T09:07:44;9.60;;;2.47;;
21038;SDS011;10678;51.002;4.786;2023-03-31T09:10:33;12.05;;;2.33;;
21038;SDS011;10678;51.002;4.786;2023-03-31T09:16:11;18.50;;;2.67;;
21038;SDS011;10678;51.002;4.786;2023-03-31T09:18:39;14.65;;;3.13;;
21038;SDS011;10678;51.002;4.786;2023-03-31T09:34:52;13.45;;;2.15;;
21038;SDS011;10678;51.002;4.786;2023-03-31T09:37:21;11.98;;;3.05;;
21038;SDS011;10678;51.002;4.786;2023-03-31T09:39:50;13.30;;;2.28;;
21038;SDS011;10678;51.002;4.786;2023-03-31T09:42:15;16.30;;;3.17;;
21038;SDS011;10678;51.002;4.786;2023-03-31T09:44:43;14.52;;;2.55;;
21038;SDS011;10678;51.002;4.786;2023-03-31T09:47:24;14.98;;;2.22;;
21038;SDS011;10678;51.002;4.786;2023-03-31T09:50:06;13.82;;;2.45;;
21038;SDS011;10678;51.002;4.786;2023-03-31T09:52:55;16.25;;;3.58;;
21038;SDS011;10678;51.002;4.786;2023-03-31T09:55:28;12.25;;;2.80;;
21038;SDS011;10678;51.002;4.786;2023-03-31T09:58:11;14.35;;;3.28;;
21038;SDS011;10678;51.002;4.786;2023-03-31T10:00:41;15.73;;;3.40;;
21038;SDS011;10678;51.002;4.786;2023-03-31T10:03:21;12.15;;;3.05;;
21038;SDS011;10678;51.002;4.786;2023-03-31T10:05:49;15.55;;;3.00;;
21038;SDS011;10678;51.002;4.786;2023-03-31T10:13:15;15.32;;;3.50;;
21038;SDS011;10678;51.002;4.786;2023-03-31T10:15:44;20.25;;;2.95;;
21038;SDS011;10678;51.002;4.786;2023-03-31T10:18:16;20.48;;;3.40;;
21038;SDS011;10678;51.002;4.786;2023-03-31T10:20:45;11.10;;;2.45;;
21038;SDS011;10678;51.002;4.786;2023-03-31T10:23:16;17.85;;;2.72;;
21038;SDS011;10678;51.002;4.786;2023-03-31T10:25:41;11.60;;;2.42;;
21038;SDS011;10678;51.002;4.786;2023-03-31T10:28:10;16.13;;;3.28;;
21038;SDS011;10678;51.002;4.786;2023-03-31T10:30:40;16.52;;;2.92;;
21038;SDS011;10678;51.002;4.786;2023-03-31T10:33:17;18.08;;;3.22;;
21038;SDS011;10678;51.002;4.786;2023-03-31T10:35:49;14.55;;;2.75;;
21038;SDS011;10678;51.002;4.786;2023-03-31T10:38:24;17.70;;;3.60;;
21038;SDS011;10678;51.002;4.786;2023-03-31T10:40:52;21.50;;;3.78;;
21038;SDS011;10678;51.002;4.786;2023-03-31T10:43:23;15.27;;;2.42;;
21038;SDS011;10678;51.002;4.786;2023-03-31T10:45:57;19.95;;;3.25;;
21038;SDS011;10678;51.002;4.786;2023-03-31T10:48:30;14.63;;;2.83;;
21038;SDS011;10678;51.002;4.786;2023-03-31T10:53:42;12.52;;;2.30;;
21038;SDS011;10678;51.002;4.786;2023-03-31T10:59:11;18.27;;;3.28;;
21038;SDS011;10678;51.002;4.786;2023-03-31T11:13:07;13.73;;;2.60;;
21038;SDS011;10678;51.002;4.786;2023-03-31T11:15:49;13.95;;;2.35;;
21038;SDS011;10678;51.002;4.786;2023-03-31T11:23:59;10.15;;;2.38;;
21038;SDS011;10678;51.002;4.786;2023-03-31T11:29:29;18.55;;;3.35;;
21038;SDS011;10678;51.002;4.786;2023-03-31T11:43:14;16.85;;;3.17;;
21038;SDS011;10678;51.002;4.786;2023-03-31T11:45:59;13.95;;;2.30;;
21038;SDS011;10678;51.002;4.786;2023-03-31T11:48:32;14.20;;;3.55;;
21038;SDS011;10678;51.002;4.786;2023-03-31T11:52:12;14.75;;;3.20;;
21038;SDS011;10678;51.002;4.786;2023-03-31T11:54:23;14.80;;;2.60;;
21038;SDS011;10678;51.002;4.786;2023-03-31T11:56:57;13.18;;;2.70;;
21038;SDS011;10678;51.002;4.786;2023-03-31T11:59:27;11.98;;;2.47;;
21038;SDS011;10678;51.002;4.786;2023-03-31T12:02:15;11.57;;;2.58;;
21038;SDS011;10678;51.002;4.786;2023-03-31T12:04:53;8.98;;;2.15;;
21038;SDS011;10678;51.002;4.786;2023-03-31T12:12:52;10.70;;;2.22;;
21038;SDS011;10678;51.002;4.786;2023-03-31T12:15:32;10.25;;;2.08;;
21038;SDS011;10678;51.002;4.786;2023-03-31T12:18:08;16.23;;;2.40;;
21038;SDS011;10678;51.002;4.786;2023-03-31T12:21:02;13.00;;;2.33;;
21038;SDS011;10678;51.002;4.786;2023-03-31T12:23:34;11.25;;;2.22;;
21038;SDS011;10678;51.002;4.786;2023-03-31T12:28:56;10.20;;;1.92;;
21038;SDS011;10678;51.002;4.786;2023-03-31T12:31:24;12.18;;;2.10;;
21038;SDS011;10678;51.002;4.786;2023-03-31T12:33:56;14.43;;;2.13;;
21038;SDS011;10678;51.002;4.786;2023-03-31T12:44:40;10.02;;;2.45;;
21038;SDS011;10678;51.002;4.786;2023-03-31T12:47:31;11.38;;;1.48;;
21038;SDS011;10678;51.002;4.786;2023-03-31T12:52:46;10.38;;;1.75;;
21038;SDS011;10678;51.002;4.786;2023-03-31T12:55:53;12.82;;;2.33;;
21038;SDS011;10678;51.002;4.786;2023-03-31T13:03:40;9.48;;;1.75;;
21038;SDS011;10678;51.002;4.786;2023-03-31T13:06:08;5.88;;;1.40;;
21038;SDS011;10678;51.002;4.786;2023-03-31T13:09:00;8.43;;;1.98;;
21038;SDS011;10678;51.002;4.786;2023-03-31T13:11:43;7.60;;;1.60;;
21038;SDS011;10678;51.002;4.786;2023-03-31T13:19:51;7.65;;;1.40;;
21038;SDS011;10678;51.002;4.786;2023-03-31T13:22:32;5.05;;;1.05;;
21038;SDS011;10678;51.002;4.786;2023-03-31T13:27:56;5.90;;;1.13;;
21038;SDS011;10678;51.002;4.786;2023-03-31T13:33:06;6.15;;;1.25;;
21038;SDS011;10678;51.002;4.786;2023-03-31T13:35:40;4.30;;;0.85;;
21038;SDS011;10678;51.002;4.786;2023-03-31T13:41:09;5.70;;;1.40;;
21038;SDS011;10678;51.002;4.786;2023-03-31T13:52:11;6.40;;;1.40;;
21038;SDS011;10678;51.002;4.786;2023-03-31T13:54:53;6.85;;;1.30;;
21038;SDS011;10678;51.002;4.786;2023-03-31T14:08:52;5.20;;;1.40;;
21038;SDS011;10678;51.002;4.786;2023-03-31T14:11:25;3.20;;;1.17;;
21038;SDS011;10678;51.002;4.786;2023-03-31T14:16:36;4.35;;;1.10;;
21038;SDS011;10678;51.002;4.786;2023-03-31T14:21:54;6.00;;;1.15;;
21038;SDS011;10678;51.002;4.786;2023-03-31T14:24:33;6.15;;;1.45;;
21038;SDS011;10678;51.002;4.786;2023-03-31T14:27:20;4.50;;;1.05;;
21038;SDS011;10678;51.002;4.786;2023-03-31T14:35:02;3.47;;;0.82;;
21038;SDS011;10678;51.002;4.786;2023-03-31T14:37:50;6.45;;;0.70;;
21038;SDS011;10678;51.002;4.786;2023-03-31T14:40:17;3.08;;;0.85;;
21038;SDS011;10678;51.002;4.786;2023-03-31T14:42:44;4.63;;;0.98;;
21038;SDS011;10678;51.002;4.786;2023-03-31T14:47:54;2.50;;;0.70;;
21038;SDS011;10678;51.002;4.786;2023-03-31T14:50:28;3.60;;;0.60;;
21038;SDS011;10678;51.002;4.786;2023-03-31T14:52:57;1.65;;;0.57;;
21038;SDS011;10678;51.002;4.786;2023-03-31T14:55:26;3.63;;;0.80;;
21038;SDS011;10678;51.002;4.786;2023-03-31T14:57:54;2.60;;;0.70;;
21038;SDS011;10678;51.002;4.786;2023-03-31T15:00:33;3.13;;;0.70;;
21038;SDS011;10678;51.002;4.786;2023-03-31T15:03:02;3.40;;;1.00;;
21038;SDS011;10678;51.002;4.786;2023-03-31T15:05:32;3.42;;;1.08;;
21038;SDS011;10678;51.002;4.786;2023-03-31T15:08:03;5.18;;;1.40;;
21038;SDS011;10678;51.002;4.786;2023-03-31T15:10:42;6.68;;;1.83;;
21038;SDS011;10678;51.002;4.786;2023-03-31T15:13:19;4.90;;;1.60;;
21038;SDS011;10678;51.002;4.786;2023-03-31T15:15:55;7.05;;;2.35;;
21038;SDS011;10678;51.002;4.786;2023-03-31T15:18:24;5.95;;;1.58;;
21038;SDS011;10678;51.002;4.786;2023-03-31T15:20:50;5.47;;;1.30;;
21038;SDS011;10678;51.002;4.786;2023-03-31T15:23:18;4.00;;;1.00;;
21038;SDS011;10678;51.002;4.786;2023-03-31T15:25:55;3.92;;;1.15;;
21038;SDS011;10678;51.002;4.786;2023-03-31T15:28:23;4.78;;;1.60;;
21038;SDS011;10678;51.002;4.786;2023-03-31T15:30:57;4.70;;;1.33;;
21038;SDS011;10678;51.002;4.786;2023-03-31T15:33:27;3.83;;;0.77;;
21038;SDS011;10678;51.002;4.786;2023-03-31T15:35:57;3.15;;;1.00;;
21038;SDS011;10678;51.002;4.786;2023-03-31T15:38:24;10.18;;;1.38;;
21038;SDS011;10678;51.002;4.786;2023-03-31T15:40:53;3.85;;;0.88;;
21038;SDS011;10678;51.002;4.786;2023-03-31T15:43:27;2.80;;;0.73;;
21038;SDS011;10678;51.002;4.786;2023-03-31T15:48:27;3.38;;;0.70;;
21038;SDS011;10678;51.002;4.786;2023-03-31T15:51:01;4.15;;;1.33;;
21038;SDS011;10678;51.002;4.786;2023-03-31T15:53:42;3.65;;;0.55;;
21038;SDS011;10678;51.002;4.786;2023-03-31T15:56:23;4.28;;;0.70;;
21038;SDS011;10678;51.002;4.786;2023-03-31T15:59:02;5.88;;;0.90;;
21038;SDS011;10678;51.002;4.786;2023-03-31T16:01:30;4.28;;;0.73;;
21038;SDS011;10678;51.002;4.786;2023-03-31T16:04:05;1.50;;;0.52;;
21038;SDS011;10678;51.002;4.786;2023-03-31T16:09:28;7.70;;;1.17;;
21038;SDS011;10678;51.002;4.786;2023-03-31T16:14:50;1.95;;;0.63;;
21038;SDS011;10678;51.002;4.786;2023-03-31T16:17:25;4.10;;;1.00;;
21038;SDS011;10678;51.002;4.786;2023-03-31T16:20:09;2.58;;;0.55;;
21038;SDS011;10678;51.002;4.786;2023-03-31T16:22:53;3.30;;;0.80;;
21038;SDS011;10678;51.002;4.786;2023-03-31T16:25:23;5.18;;;1.02;;
21038;SDS011;10678;51.002;4.786;2023-03-31T16:27:52;2.58;;;0.70;;
21038;SDS011;10678;51.002;4.786;2023-03-31T16:30:21;4.03;;;0.70;;
21038;SDS011;10678;51.002;4.786;2023-03-31T16:32:58;3.88;;;0.90;;
21038;SDS011;10678;51.002;4.786;2023-03-31T16:35:27;10.02;;;1.38;;
21038;SDS011;10678;51.002;4.786;2023-03-31T16:38:01;8.38;;;1.30;;
21038;SDS011;10678;51.002;4.786;2023-03-31T16:40:28;8.07;;;1.35;;
21038;SDS011;10678;51.002;4.786;2023-03-31T16:45:43;6.97;;;1.25;;
21038;SDS011;10678;51.002;4.786;2023-03-31T16:48:14;3.00;;;0.90;;
21038;SDS011;10678;51.002;4.786;2023-03-31T16:50:41;8.35;;;1.15;;
21038;SDS011;10678;51.002;4.786;2023-03-31T16:53:07;8.48;;;1.42;;
21038;SDS011;10678;51.002;4.786;2023-03-31T16:55:34;7.28;;;1.00;;
21038;SDS011;10678;51.002;4.786;2023-03-31T16:58:00;4.25;;;0.90;;
21038;SDS011;10678;51.002;4.786;2023-03-31T17:00:30;6.47;;;1.40;;
21038;SDS011;10678;51.002;4.786;2023-03-31T17:02:59;6.90;;;1.05;;
21038;SDS011;10678;51.002;4.786;2023-03-31T17:05:26;10.38;;;1.27;;
21038;SDS011;10678;51.002;4.786;2023-03-31T17:07:52;9.85;;;1.63;;
21038;SDS011;10678;51.002;4.786;2023-03-31T17:10:18;6.70;;;1.40;;
21038;SDS011;10678;51.002;4.786;2023-03-31T17:12:45;6.65;;;1.25;;
21038;SDS011;10678;51.002;4.786;2023-03-31T17:15:10;10.05;;;1.45;;
21038;SDS011;10678;51.002;4.786;2023-03-31T17:17:37;4.65;;;1.10;;
21038;SDS011;10678;51.002;4.786;2023-03-31T17:20:06;8.45;;;1.67;;
21038;SDS011;10678;51.002;4.786;2023-03-31T17:22:33;6.55;;;1.13;;
21038;SDS011;10678;51.002;4.786;2023-03-31T17:24:59;5.72;;;1.00;;
21038;SDS011;10678;51.002;4.786;2023-03-31T17:27:25;5.97;;;1.27;;
21038;SDS011;10678;51.002;4.786;2023-03-31T17:29:52;8.45;;;1.40;;
21038;SDS011;10678;51.002;4.786;2023-03-31T17:32:18;6.50;;;1.45;;
21038;SDS011;10678;51.002;4.786;2023-03-31T17:34:44;8.70;;;1.23;;
21038;SDS011;10678;51.002;4.786;2023-03-31T17:37:14;5.90;;;0.95;;
21038;SDS011;10678;51.002;4.786;2023-03-31T17:39:41;4.55;;;1.15;;
21038;SDS011;10678;51.002;4.786;2023-03-31T17:42:07;4.55;;;1.50;;
21038;SDS011;10678;51.002;4.786;2023-03-31T17:44:33;8.95;;;1.63;;
21038;SDS011;10678;51.002;4.786;2023-03-31T17:46:59;7.85;;;1.55;;
21038;SDS011;10678;51.002;4.786;2023-03-31T17:49:25;5.07;;;1.08;;
21038;SDS011;10678;51.002;4.786;2023-03-31T17:51:51;6.75;;;1.20;;
21038;SDS011;10678;51.002;4.786;2023-03-31T17:54:17;3.22;;;0.80;;
21038;SDS011;10678;51.002;4.786;2023-03-31T17:56:43;8.00;;;1.25;;
21038;SDS011;10678;51.002;4.786;2023-03-31T17:59:09;8.23;;;0.98;;
21038;SDS011;10678;51.002;4.786;2023-03-31T18:01:35;4.80;;;1.27;;
21038;SDS011;10678;51.002;4.786;2023-03-31T18:04:01;7.28;;;1.27;;
21038;SDS011;10678;51.002;4.786;2023-03-31T18:06:27;6.00;;;0.90;;
21038;SDS011;10678;51.002;4.786;2023-03-31T18:08:54;8.43;;;1.65;;
21038;SDS011;10678;51.002;4.786;2023-03-31T18:11:21;10.45;;;1.45;;
21038;SDS011;10678;51.002;4.786;2023-03-31T18:13:47;8.98;;;1.67;;
21038;SDS011;10678;51.002;4.786;2023-03-31T18:16:12;8.00;;;1.45;;